Time;durP1;ratioP1;P1;durP2;ratioP2;P2;SDS_P1;SDS_P2;PMS_P1;PMS_P2;Temp;Humidity;BMP_temperature;BMP_pressure;BME280_temperature;BME280_humidity;BME280_pressure;Samples;Min_cycle;Max_cycle;Signal;HPM_P1;HPM_P2
2021/11/01 00:01:12;;;;;;;3.85;2.35;;;;;;;16.48;88.34;99042.06;5062058;28;20044;-65
2021/11/01 00:03:38;;;;;;;5.18;2.30;;;;;;;16.46;89.25;99047.94;5068043;28;20048;-65
2021/11/01 00:06:06;;;;;;;3.95;1.90;;;;;;;16.50;88.78;99056.00;5066899;28;20025;-65
2021/11/01 00:08:31;;;;;;;4.93;2.42;;;;;;;16.53;89.07;99061.31;5073993;22;20504;-68
2021/11/01 00:10:57;;;;;;;4.05;2.38;;;;;;;16.46;89.95;99055.31;5064342;28;20115;-68
2021/11/01 00:13:22;;;;;;;6.47;1.75;;;;;;;16.45;89.61;99068.16;5071916;28;20063;-67
2021/11/01 00:15:48;;;;;;;6.70;2.13;;;;;;;16.54;88.78;99059.38;5072046;28;20036;-68
2021/11/01 00:18:13;;;;;;;4.40;2.25;;;;;;;16.57;87.98;99066.69;5058331;28;20044;-68
2021/11/01 00:20:39;;;;;;;4.90;2.50;;;;;;;16.54;88.01;99062.09;5057278;28;20631;-68
2021/11/01 00:23:04;;;;;;;4.68;2.35;;;;;;;16.57;87.83;99059.28;5081598;28;20028;-68
2021/11/01 00:25:30;;;;;;;4.85;2.58;;;;;;;16.50;88.60;99056.00;5060935;28;20033;-67
2021/11/01 00:27:56;;;;;;;6.70;2.63;;;;;;;16.46;87.83;99066.97;5065141;28;20119;-68
2021/11/01 00:30:21;;;;;;;4.65;2.38;;;;;;;16.45;88.14;99072.84;5056743;28;20058;-68
2021/11/01 00:32:47;;;;;;;5.82;2.67;;;;;;;16.46;87.95;99068.91;5053994;28;20044;-68
2021/11/01 00:35:13;;;;;;;5.63;2.42;;;;;;;16.45;87.36;99068.16;5077679;28;20039;-68
2021/11/01 00:37:39;;;;;;;5.80;2.80;;;;;;;16.46;87.37;99075.09;5076171;28;20024;-68
2021/11/01 00:40:05;;;;;;;4.15;2.13;;;;;;;16.47;87.32;99071.22;5066734;28;20081;-67
2021/11/01 00:42:31;;;;;;;4.60;2.47;;;;;;;16.39;88.28;99061.75;5076722;28;20043;-68
2021/11/01 00:44:57;;;;;;;5.50;2.45;;;;;;;16.44;87.19;99053.03;5069948;28;20113;-67
2021/11/01 00:47:23;;;;;;;6.80;2.67;;;;;;;16.42;87.15;99057.38;5059873;28;20060;-68
2021/11/01 00:49:50;;;;;;;5.88;2.75;;;;;;;16.38;87.63;99056.72;5076670;28;20594;-67
2021/11/01 00:52:20;;;;;;;6.30;2.60;;;;;;;16.37;87.64;99045.09;5070322;28;20053;-68
2021/11/01 00:54:45;;;;;;;5.32;2.72;;;;;;;16.35;87.46;99052.16;5061069;28;20036;-67
2021/11/01 00:57:11;;;;;;;3.58;2.30;;;;;;;16.34;87.57;99045.22;5063923;28;20037;-68
2021/11/01 00:59:36;;;;;;;5.53;2.53;;;;;;;16.35;87.20;99047.50;5071360;28;20048;-67
2021/11/01 01:02:02;;;;;;;6.07;2.55;;;;;;;16.27;88.14;99051.59;5067120;28;20020;-68
2021/11/01 01:04:28;;;;;;;5.88;2.78;;;;;;;16.28;88.50;99043.00;5065898;28;20050;-67
2021/11/01 01:06:53;;;;;;;4.32;2.10;;;;;;;16.34;87.49;99048.66;5097879;28;20040;-68
2021/11/01 01:09:19;;;;;;;4.95;2.20;;;;;;;16.29;87.96;99038.34;5066139;28;20043;-68
2021/11/01 01:11:44;;;;;;;4.57;2.05;;;;;;;16.31;88.01;99043.34;5072065;28;20119;-68
2021/11/01 01:14:10;;;;;;;3.47;2.00;;;;;;;16.28;88.92;99055.84;5071582;28;20044;-68
2021/11/01 01:16:43;;;;;;;3.83;2.03;;;;;;;16.36;88.52;99061.81;5052796;28;20029;-68
2021/11/01 01:19:22;;;;;;;4.55;1.92;;;;;;;16.37;89.16;99058.69;5070544;28;20110;-68
2021/11/01 01:24:32;;;;;;;2.88;1.20;;;;;;;16.38;90.03;99062.16;5065027;28;20029;-68
2021/11/01 01:26:57;;;;;;;2.92;1.60;;;;;;;16.40;90.07;99065.97;5060753;28;20406;-68
2021/11/01 01:29:23;;;;;;;2.60;1.27;;;;;;;16.39;90.55;99052.81;5067018;28;20024;-68
2021/11/01 01:31:49;;;;;;;4.53;1.60;;;;;;;16.40;90.95;99054.31;5063859;28;20170;-67
2021/11/01 01:34:15;;;;;;;3.28;1.45;;;;;;;16.46;91.60;99079.78;5079905;28;20581;-68
2021/11/01 01:36:40;;;;;;;1.27;1.05;;;;;;;16.47;92.12;99092.19;5061204;28;20041;-68
2021/11/01 01:39:06;;;;;;;3.63;1.20;;;;;;;16.43;92.73;99076.00;5065574;28;20043;-68
2021/11/01 01:41:33;;;;;;;1.13;0.75;;;;;;;16.46;93.50;99082.50;5065525;28;20020;-68
2021/11/01 01:44:00;;;;;;;1.38;0.68;;;;;;;16.41;94.77;99080.31;5068515;28;20039;-67
2021/11/01 01:46:27;;;;;;;0.95;0.68;;;;;;;16.39;95.54;99090.84;5060200;28;20044;-67
2021/11/01 01:48:54;;;;;;;1.15;0.40;;;;;;;16.42;95.12;99079.13;5069100;28;20051;-68
2021/11/01 01:51:21;;;;;;;1.98;0.43;;;;;;;16.25;94.50;99075.72;5071819;28;20390;-68
2021/11/01 01:53:48;;;;;;;0.57;0.50;;;;;;;16.32;93.36;99069.34;5072529;28;20595;-68
2021/11/01 01:56:15;;;;;;;1.13;0.28;;;;;;;16.29;92.53;99076.38;5069603;28;20477;-68
2021/11/01 01:58:50;;;;;;;1.38;0.70;;;;;;;16.30;88.83;99098.88;5063266;28;20041;-68
2021/11/01 02:01:16;;;;;;;2.03;0.70;;;;;;;16.17;85.76;99101.56;5061988;28;20032;-68
2021/11/01 02:03:49;;;;;;;3.60;0.30;;;;;;;16.12;84.39;99105.56;5060557;28;20036;-68
2021/11/01 02:06:27;;;;;;;0.73;0.30;;;;;;;16.07;82.73;99089.03;5068013;28;20086;-68
2021/11/01 02:09:20;;;;;;;0.63;0.20;;;;;;;15.97;82.36;99079.22;5063407;28;20041;-67
2021/11/01 02:11:48;;;;;;;0.55;0.22;;;;;;;15.93;82.68;99081.28;5084974;28;20050;-68
2021/11/01 02:14:18;;;;;;;2.88;0.60;;;;;;;16.03;82.17;99070.13;5068738;28;20028;-67
2021/11/01 02:16:47;;;;;;;6.82;0.45;;;;;;;16.05;81.52;99075.13;5078529;28;20052;-67
2021/11/01 02:19:17;;;;;;;0.85;0.20;;;;;;;16.05;81.82;99084.03;5061418;28;20083;-67
2021/11/01 02:21:53;;;;;;;2.80;0.28;;;;;;;15.94;81.97;99067.28;5069392;28;20116;-67
2021/11/01 02:24:42;;;;;;;4.93;0.52;;;;;;;15.91;81.81;99070.84;5068054;28;20032;-67
2021/11/01 02:27:11;;;;;;;4.63;0.50;;;;;;;15.96;82.03;99088.56;5060802;28;20033;-67
2021/11/01 02:29:41;;;;;;;2.55;0.50;;;;;;;15.90;82.47;99101.91;5068862;28;20025;-67
2021/11/01 02:32:07;;;;;;;3.00;0.65;;;;;;;15.90;82.70;99099.19;5061313;28;20036;-67
2021/11/01 02:34:34;;;;;;;0.70;0.38;;;;;;;15.82;83.53;99081.56;5061751;28;20391;-67
2021/11/01 02:37:00;;;;;;;3.78;0.40;;;;;;;15.82;83.26;99073.41;5076844;28;20040;-67
2021/11/01 02:39:26;;;;;;;5.38;0.60;;;;;;;15.84;82.69;99075.69;5060669;28;20029;-67
2021/11/01 02:41:52;;;;;;;3.63;0.47;;;;;;;15.85;82.93;99071.81;5074888;28;20029;-67
2021/11/01 02:44:21;;;;;;;1.65;0.60;;;;;;;15.80;83.34;99073.06;5081227;28;20504;-67
2021/11/01 02:46:47;;;;;;;3.00;0.43;;;;;;;15.76;83.59;99063.50;5069618;28;20043;-67
2021/11/01 02:49:12;;;;;;;3.92;1.35;;;;;;;15.77;83.80;99057.66;5059321;28;20025;-67
2021/11/01 02:51:40;;;;;;;1.63;0.20;;;;;;;15.77;83.69;99067.75;5067780;28;20719;-67
2021/11/01 02:54:06;;;;;;;0.98;0.20;;;;;;;15.80;83.68;99059.50;5063238;28;20035;-67
2021/11/01 02:56:32;;;;;;;1.67;0.88;;;;;;;15.71;84.58;99064.81;5066413;28;20055;-67
2021/11/01 02:58:58;;;;;;;1.80;0.38;;;;;;;15.69;84.99;99064.47;5068914;28;20036;-67
2021/11/01 03:01:23;;;;;;;0.70;0.20;;;;;;;15.68;85.40;99075.75;5067758;28;20028;-67
2021/11/01 03:03:49;;;;;;;3.10;0.30;;;;;;;15.62;85.81;99066.59;5063651;28;20129;-67
2021/11/01 03:06:22;;;;;;;2.40;0.50;;;;;;;15.62;86.30;99072.03;5075008;28;20036;-67
2021/11/01 03:08:50;;;;;;;0.45;0.20;;;;;;;15.60;86.43;99071.69;5069007;28;20036;-67
2021/11/01 03:11:16;;;;;;;1.25;0.45;;;;;;;15.62;86.40;99064.63;5055656;28;20024;-67
2021/11/01 03:13:41;;;;;;;0.15;0.15;;;;;;;15.60;86.61;99069.72;5058574;28;20419;-67
2021/11/01 03:16:08;;;;;;;1.15;0.40;;;;;;;15.57;87.12;99069.81;5081029;28;20028;-67
2021/11/01 03:18:51;;;;;;;1.40;0.40;;;;;;;15.53;87.40;99069.16;5067157;28;20178;-67
2021/11/01 03:21:18;;;;;;;0.47;0.20;;;;;;;15.58;87.55;99072.09;5064429;28;20124;-67
2021/11/01 03:23:49;;;;;;;0.38;0.20;;;;;;;15.57;87.79;99086.88;5062394;28;20033;-67
2021/11/01 03:26:19;;;;;;;0.70;0.25;;;;;;;15.62;87.91;99077.47;5062103;28;20032;-67
2021/11/01 03:28:51;;;;;;;0.55;0.50;;;;;;;15.64;87.69;99078.53;5059033;28;20102;-67
2021/11/01 03:31:26;;;;;;;2.88;0.47;;;;;;;15.58;88.28;99080.25;5067650;28;20028;-67
2021/11/01 03:33:53;;;;;;;3.60;0.40;;;;;;;15.53;88.77;99078.06;5076036;28;20040;-67
2021/11/01 03:36:20;;;;;;;1.15;0.60;;;;;;;15.54;88.93;99068.75;5066311;28;20116;-67
2021/11/01 03:38:47;;;;;;;1.95;0.40;;;;;;;15.47;89.65;99071.63;5060911;28;20037;-67
2021/11/01 03:41:14;;;;;;;0.68;0.30;;;;;;;15.41;90.08;99088.81;5074675;28;20032;-67
2021/11/01 03:43:44;;;;;;;1.70;0.40;;;;;;;15.40;90.24;99093.47;5069452;28;20020;-67
2021/11/01 03:46:11;;;;;;;0.90;0.50;;;;;;;15.30;90.83;99106.13;5069251;28;20049;-67
2021/11/01 03:48:39;;;;;;;5.68;0.63;;;;;;;15.30;91.10;99111.53;5063950;28;20086;-67
2021/11/01 03:51:10;;;;;;;1.85;0.50;;;;;;;15.28;90.84;99113.91;5072407;28;20032;-67
2021/11/01 03:53:37;;;;;;;2.15;0.32;;;;;;;15.34;90.39;99122.31;5069537;28;20089;-67
2021/11/01 03:56:04;;;;;;;1.60;0.20;;;;;;;15.26;90.61;99110.09;5071775;28;20070;-67
2021/11/01 03:58:30;;;;;;;2.67;0.70;;;;;;;15.19;91.13;99108.28;5067215;28;20398;-67
2021/11/01 04:00:55;;;;;;;2.70;0.40;;;;;;;15.13;91.01;99117.38;5066694;28;20082;-67
2021/11/01 04:03:30;;;;;;;2.65;0.47;;;;;;;15.16;90.48;99109.16;5070812;28;20024;-67
2021/11/01 04:06:02;;;;;;;1.38;0.32;;;;;;;15.08;91.21;99115.94;5075605;28;20036;-67
2021/11/01 04:08:29;;;;;;;0.90;0.30;;;;;;;14.98;91.56;99111.50;5057981;28;20039;-67
2021/11/01 04:10:55;;;;;;;1.05;0.38;;;;;;;14.97;91.68;99110.00;5071711;28;20681;-67
2021/11/01 04:13:20;;;;;;;0.85;0.63;;;;;;;14.99;92.04;99109.56;5076098;28;20032;-67
2021/11/01 04:15:52;;;;;;;2.22;0.40;;;;;;;15.03;91.02;99118.38;5070145;28;20055;-67
2021/11/01 04:18:26;;;;;;;2.03;0.45;;;;;;;14.97;91.42;99114.66;5066477;28;20036;-66
2021/11/01 04:20:55;;;;;;;6.03;0.50;;;;;;;14.93;91.77;99132.94;5085335;28;20028;-67
2021/11/01 04:23:27;;;;;;;6.50;0.57;;;;;;;14.90;91.95;99114.81;5068935;28;20028;-66
2021/11/01 04:25:53;;;;;;;1.17;0.30;;;;;;;14.93;91.12;99119.38;5069086;28;20107;-67
2021/11/01 04:28:19;;;;;;;3.10;0.47;;;;;;;14.91;91.33;99138.00;5065055;28;20036;-67
2021/11/01 04:30:49;;;;;;;6.90;1.02;;;;;;;14.73;92.25;99138.38;5066280;28;20086;-66
2021/11/01 04:33:19;;;;;;;4.20;0.80;;;;;;;14.80;92.45;99151.03;5068474;28;20039;-67
2021/11/01 04:35:44;;;;;;;0.70;0.60;;;;;;;14.86;92.16;99154.78;5065567;28;20502;-67
2021/11/01 04:54:17;;;;;;;3.60;0.55;;;;;;;14.69;92.77;99145.09;5070999;28;20398;-67
2021/11/01 04:56:43;;;;;;;1.10;0.50;;;;;;;14.64;92.92;99135.50;5070108;28;20106;-67
2021/11/01 04:59:09;;;;;;;0.88;0.40;;;;;;;14.65;93.08;99141.69;5068305;28;20123;-67
2021/11/01 05:01:39;;;;;;;5.18;0.52;;;;;;;14.67;92.82;99142.03;5064795;28;20107;-67
2021/11/01 05:04:09;;;;;;;0.68;0.45;;;;;;;14.72;92.50;99146.94;5058663;28;20036;-67
2021/11/01 05:06:41;;;;;;;2.03;0.52;;;;;;;14.68;92.58;99157.88;5075617;28;20401;-67
2021/11/01 05:09:10;;;;;;;7.38;0.60;;;;;;;14.67;92.75;99150.94;5069901;28;20507;-67
2021/11/01 05:11:48;;;;;;;0.77;0.38;;;;;;;14.70;92.38;99141.19;5069349;28;20036;-66
2021/11/01 05:14:15;;;;;;;4.45;0.63;;;;;;;14.57;92.98;99146.50;5066003;28;20066;-67
2021/11/01 05:21:47;;;;;;;2.05;0.60;;;;;;;14.55;92.94;99172.47;5072098;28;20040;-67
2021/11/01 05:24:25;;;;;;;1.70;0.88;;;;;;;14.50;93.51;99189.22;5069954;28;20031;-67
2021/11/01 05:27:07;;;;;;;4.10;0.77;;;;;;;14.41;93.62;99176.22;5060593;28;20044;-67
2021/11/01 05:29:33;;;;;;;1.15;0.52;;;;;;;14.36;93.88;99182.88;5064565;28;20082;-66
2021/11/01 05:32:09;;;;;;;2.15;0.40;;;;;;;14.34;94.76;99171.69;5067241;28;20040;-67
2021/11/01 05:34:36;;;;;;;0.90;0.35;;;;;;;14.45;93.31;99172.25;5069058;28;20048;-67
2021/11/01 05:37:02;;;;;;;5.03;0.82;;;;;;;14.44;93.92;99178.06;5061241;28;20179;-67
2021/11/01 05:39:27;;;;;;;2.33;0.77;;;;;;;14.46;93.38;99167.59;5071266;28;20103;-67
2021/11/01 05:41:53;;;;;;;4.53;0.47;;;;;;;14.38;93.64;99171.66;5077338;28;20108;-66
2021/11/01 05:44:18;;;;;;;1.40;0.50;;;;;;;14.34;93.80;99166.28;5069919;28;21549;-66
2021/11/01 05:46:49;;;;;;;7.75;0.93;;;;;;;14.41;93.22;99168.88;5059996;28;20133;-66
2021/11/01 05:49:17;;;;;;;3.40;1.65;;;;;;;14.35;93.64;99173.22;5058796;28;20028;-67
2021/11/01 05:51:42;;;;;;;1.55;0.90;;;;;;;14.32;94.19;99167.88;5069485;28;20760;-66
2021/11/01 05:54:13;;;;;;;1.92;0.63;;;;;;;14.34;93.76;99177.09;5070204;28;20036;-67
2021/11/01 06:04:53;;;;;;;0.80;0.65;;;;;;;14.30;93.80;99181.06;5067679;28;20471;-66
2021/11/01 06:09:52;;;;;;;4.13;0.70;;;;;;;14.30;93.67;99187.25;5077151;28;20047;-66
2021/11/01 06:15:03;;;;;;;2.20;0.57;;;;;;;14.26;93.72;99178.41;5066308;28;20119;-69
2021/11/01 06:17:30;;;;;;;0.90;0.50;;;;;;;14.25;94.57;99173.38;5067608;28;20086;-69
2021/11/01 06:19:55;;;;;;;5.40;0.90;;;;;;;14.29;93.65;99179.53;5057389;28;20039;-68
2021/11/01 06:22:22;;;;;;;5.15;1.85;;;;;;;14.22;94.51;99185.06;5061295;28;20032;-69
2021/11/01 06:24:57;;;;;;;2.05;0.70;;;;;;;14.28;93.61;99180.72;5064522;28;20712;-67
2021/11/01 06:27:23;;;;;;;2.53;0.60;;;;;;;14.23;93.66;99176.53;5060371;28;20029;-66
2021/11/01 06:45:28;;;;;;;2.47;0.90;;;;;;;14.26;93.68;99185.75;5067075;28;20105;-67
2021/11/01 07:17:59;;;;;;;3.63;0.93;;;;;;;14.19;93.06;99229.97;5070657;28;20054;-67
2021/11/01 07:20:17;;;;;;;6.18;0.85;;;;;;;14.18;92.79;99231.16;5059420;28;20127;-67
2021/11/01 07:38:06;;;;;;;1.92;1.33;;;;;;;14.18;93.52;99238.50;5070333;28;20044;-67
2021/11/01 08:22:46;;;;;;;1.75;0.70;;;;;;;14.15;91.72;99277.25;5064227;28;20452;-67
2021/11/01 08:38:50;;;;;;;1.50;0.50;;;;;;;14.37;90.29;99262.97;5066497;28;20029;-67
2021/11/01 09:01:19;;;;;;;1.92;0.50;;;;;;;14.38;87.99;99275.31;5063072;28;20036;-67
2021/11/01 09:01:21;;;;;;;2.80;0.50;;;;;;;14.36;88.33;99274.97;5056373;28;20044;-67
2021/11/01 09:03:15;;;;;;;0.65;0.30;;;;;;;14.38;87.61;99258.31;5066480;28;20039;-67
2021/11/01 09:18:44;;;;;;;3.92;0.40;;;;;;;14.61;86.37;99265.63;5064495;28;20045;-67
2021/11/01 09:24:39;;;;;;;4.63;0.60;;;;;;;14.64;84.33;99262.84;5070046;28;20122;-67
2021/11/01 09:26:45;;;;;;;5.18;0.47;;;;;;;14.64;84.84;99264.78;5065631;28;20053;-67
2021/11/01 09:29:26;;;;;;;2.08;0.43;;;;;;;14.66;84.64;99267.84;5067249;28;20111;-67
2021/11/01 09:42:47;;;;;;;0.85;0.40;;;;;;;14.78;83.35;99275.38;5066768;28;20044;-67
2021/11/01 09:45:13;;;;;;;5.93;0.43;;;;;;;14.76;83.14;99277.72;5059128;28;20036;-68
2021/11/01 09:47:43;;;;;;;5.80;0.52;;;;;;;14.81;83.04;99288.06;5077635;28;20032;-67
2021/11/01 09:50:09;;;;;;;1.67;0.50;;;;;;;14.75;83.35;99295.94;5071204;28;20048;-67
2021/11/01 09:52:35;;;;;;;1.35;0.73;;;;;;;14.77;82.71;99292.81;5064194;28;20165;-67
2021/11/01 09:55:16;;;;;;;2.45;0.50;;;;;;;14.75;82.80;99297.91;5065032;28;20056;-67
2021/11/01 09:59:11;;;;;;;0.60;0.45;;;;;;;14.77;82.28;99296.28;5067636;28;20036;-67
2021/11/01 10:00:27;;;;;;;4.75;0.70;;;;;;;14.82;81.55;99297.75;5057856;28;20040;-67
2021/11/01 10:02:53;;;;;;;0.60;0.30;;;;;;;14.77;82.20;99300.94;5069251;28;20031;-67
2021/11/01 10:05:26;;;;;;;2.15;0.50;;;;;;;14.80;82.69;99283.84;5062872;28;20033;-67
2021/11/01 10:07:53;;;;;;;2.40;0.47;;;;;;;14.83;82.75;99291.13;5064451;28;20048;-67
2021/11/01 10:10:20;;;;;;;3.20;0.57;;;;;;;14.95;82.57;99295.94;5065416;28;20045;-67
2021/11/01 10:12:48;;;;;;;1.45;0.30;;;;;;;15.09;82.54;99301.09;5066922;28;20544;-67
2021/11/01 10:18:08;;;;;;;2.10;0.50;;;;;;;15.23;80.13;99298.84;5058251;28;20117;-67
2021/11/01 10:20:36;;;;;;;1.13;0.30;;;;;;;15.21;80.12;99303.19;5067255;28;20036;-67
2021/11/01 10:23:14;;;;;;;3.38;0.65;;;;;;;15.21;79.93;99303.19;5060332;28;20653;-67
2021/11/01 10:25:39;;;;;;;3.30;0.70;;;;;;;15.25;79.62;99307.31;5071306;28;20251;-67
2021/11/01 10:28:05;;;;;;;1.98;0.50;;;;;;;15.28;79.21;99305.72;5067438;28;20036;-67
2021/11/01 10:30:35;;;;;;;1.50;0.52;;;;;;;15.38;77.57;99302.03;5062154;28;20048;-67
2021/11/01 10:33:05;;;;;;;0.73;0.10;;;;;;;15.36;77.62;99305.19;5063636;28;20036;-67
2021/11/01 10:35:33;;;;;;;1.63;0.32;;;;;;;15.37;78.57;99301.25;5065026;28;20028;-67
2021/11/01 10:38:29;;;;;;;6.93;0.40;;;;;;;15.41;77.96;99303.16;5067110;28;20036;-68
2021/11/01 11:24:48;;;;;;;1.60;0.30;;;;;;;15.43;74.73;99270.97;5073620;28;20036;-67
2021/11/01 11:49:12;;;;;;;0.60;0.40;;;;;;;15.62;72.84;99245.72;5061964;28;20064;-67
2021/11/01 11:51:56;;;;;;;1.00;0.20;;;;;;;15.64;73.32;99249.53;5067742;28;20036;-67
2021/11/01 11:54:39;;;;;;;0.57;0.30;;;;;;;15.65;73.63;99256.50;5059827;28;20035;-67
2021/11/01 11:57:26;;;;;;;2.28;0.52;;;;;;;15.58;73.23;99256.63;5068808;28;21273;-67
2021/11/01 11:59:55;;;;;;;1.15;0.52;;;;;;;15.57;73.53;99248.94;5067574;28;20032;-67
2021/11/01 12:02:39;;;;;;;0.68;0.20;;;;;;;15.61;73.72;99252.31;5067045;28;20040;-67
2021/11/01 12:05:13;;;;;;;0.82;0.57;;;;;;;15.66;73.69;99249.88;5066267;28;20397;-67
2021/11/01 12:07:51;;;;;;;0.43;0.28;;;;;;;15.68;73.91;99247.50;5064350;28;20040;-67
2021/11/01 12:18:53;;;;;;;0.93;0.70;;;;;;;15.65;71.46;99247.59;5065335;28;20082;-67
2021/11/01 12:21:19;;;;;;;3.25;0.40;;;;;;;15.57;71.64;99238.84;5065585;28;20032;-67
2021/11/01 12:23:45;;;;;;;0.98;0.57;;;;;;;15.67;71.66;99235.13;5066226;28;20083;-67
2021/11/01 12:26:18;;;;;;;1.35;0.60;;;;;;;15.68;71.82;99238.59;5066727;28;20044;-67
2021/11/01 12:28:50;;;;;;;6.88;0.40;;;;;;;15.71;71.01;99243.94;5065255;28;20048;-67
2021/11/01 12:31:15;;;;;;;0.30;0.30;;;;;;;15.80;69.48;99235.19;5066839;28;20032;-67
2021/11/01 12:34:06;;;;;;;2.05;0.40;;;;;;;15.88;68.95;99240.03;5060837;28;20486;-67
2021/11/01 12:36:40;;;;;;;1.10;0.30;;;;;;;15.93;68.06;99244.22;5064887;28;20044;-67
2021/11/01 12:39:46;;;;;;;1.63;0.68;;;;;;;15.97;67.15;99244.84;5062885;28;20040;-67
2021/11/01 12:58:48;;;;;;;0.65;0.28;;;;;;;16.13;68.36;99261.94;5066367;28;20040;-67
2021/11/01 13:01:16;;;;;;;0.30;0.30;;;;;;;16.13;68.51;99259.22;5060910;28;20048;-67
2021/11/01 13:03:56;;;;;;;1.05;0.30;;;;;;;16.17;68.91;99267.25;5066772;28;20039;-67
2021/11/01 13:07:30;;;;;;;1.00;0.47;;;;;;;16.17;66.90;99259.13;5052432;28;20036;-67
2021/11/01 13:09:26;;;;;;;0.73;0.50;;;;;;;16.20;67.12;99269.16;5060168;28;20564;-67
2021/11/01 13:14:52;;;;;;;1.75;0.30;;;;;;;16.11;66.76;99264.31;5065347;28;20056;-67
2021/11/01 13:20:06;;;;;;;0.70;0.40;;;;;;;16.19;65.34;99262.94;5063608;28;20043;-67
2021/11/01 13:22:42;;;;;;;1.00;0.40;;;;;;;16.12;65.71;99268.53;5064598;28;20036;-67
2021/11/01 13:25:22;;;;;;;0.32;0.32;;;;;;;16.02;66.10;99275.00;5062710;28;20056;-67
2021/11/01 13:38:46;;;;;;;0.50;0.50;;;;;;;15.98;67.03;99279.75;5064583;28;20024;-67
2021/11/01 13:41:16;;;;;;;2.07;0.63;;;;;;;16.10;67.49;99276.34;5066680;28;20040;-67
2021/11/01 13:43:44;;;;;;;2.00;0.50;;;;;;;16.30;67.05;99280.94;5063781;28;20290;-66
2021/11/01 13:46:12;;;;;;;1.42;0.60;;;;;;;16.39;66.17;99281.84;5064546;28;20521;-66
2021/11/01 13:48:39;;;;;;;0.80;0.50;;;;;;;16.34;65.66;99284.31;5065864;28;20033;-66
2021/11/01 13:51:07;;;;;;;2.22;0.70;;;;;;;16.30;65.58;99295.25;5064057;28;20044;-65
2021/11/01 13:53:40;;;;;;;1.27;0.55;;;;;;;16.15;65.46;99300.28;5066797;28;20040;-66
2021/11/01 13:56:22;;;;;;;1.23;0.60;;;;;;;16.24;65.33;99291.53;5068826;28;20025;-66
2021/11/01 13:58:58;;;;;;;1.15;0.50;;;;;;;16.24;65.42;99302.41;5069586;28;20032;-66
2021/11/01 14:12:40;;;;;;;0.85;0.35;;;;;;;16.49;63.60;99310.72;5064200;28;20123;-65
2021/11/01 14:28:28;;;;;;;1.85;0.40;;;;;;;16.03;65.95;99316.50;5064679;28;20024;-66
2021/11/01 14:34:01;;;;;;;1.35;0.40;;;;;;;15.87;66.46;99311.81;5069326;28;20037;-66
2021/11/01 15:14:47;;;;;;;1.25;0.50;;;;;;;15.74;67.66;99319.09;5069841;28;20036;-65
2021/11/01 15:33:44;;;;;;;1.10;0.60;;;;;;;15.47;67.90;99348.38;5070047;28;20107;-68
2021/11/01 15:42:21;;;;;;;0.45;0.45;;;;;;;15.28;68.53;99351.84;5077702;28;20051;-66
2021/11/01 16:17:21;;;;;;;0.60;0.50;;;;;;;14.80;71.86;99367.88;5062733;28;20029;-67
2021/11/01 16:19:51;;;;;;;0.95;0.60;;;;;;;14.70;72.78;99375.00;5064023;28;20503;-69
2021/11/01 16:22:18;;;;;;;0.90;0.60;;;;;;;14.62;73.13;99368.19;5067102;28;20040;-68
2021/11/01 16:24:46;;;;;;;2.90;0.63;;;;;;;14.71;72.26;99365.69;5063005;28;20025;-68
2021/11/01 16:27:14;;;;;;;1.90;0.70;;;;;;;14.69;72.50;99365.34;5059547;28;20043;-68
2021/11/01 16:29:47;;;;;;;1.90;1.05;;;;;;;14.66;72.86;99366.19;5070027;28;21582;-67
2021/11/01 16:32:33;;;;;;;0.85;0.50;;;;;;;14.59;73.26;99360.13;5065441;28;20045;-67
2021/11/01 16:35:06;;;;;;;2.10;0.70;;;;;;;14.43;74.02;99364.25;5060031;28;20040;-68
2021/11/01 16:37:48;;;;;;;2.88;0.90;;;;;;;14.52;74.28;99366.41;5068138;28;20040;-67
2021/11/01 16:40:14;;;;;;;3.15;1.15;;;;;;;14.45;74.37;99366.53;5059047;28;20480;-67
2021/11/01 16:42:42;;;;;;;0.55;0.55;;;;;;;14.36;74.39;99358.94;5069363;28;20139;-67
2021/11/01 16:45:16;;;;;;;3.25;0.63;;;;;;;14.28;74.93;99368.38;5067919;28;20040;-67
2021/11/01 16:47:44;;;;;;;1.30;0.57;;;;;;;14.21;75.88;99367.66;5067460;28;20085;-68
2021/11/01 16:50:12;;;;;;;2.10;0.80;;;;;;;14.15;76.09;99372.03;5059094;28;20539;-68
2021/11/01 16:52:40;;;;;;;1.45;0.80;;;;;;;13.98;76.55;99376.50;5063721;28;20053;-67
2021/11/01 16:55:15;;;;;;;0.80;0.68;;;;;;;13.92;76.93;99378.13;5063333;28;20075;-67
2021/11/01 16:57:45;;;;;;;2.58;0.63;;;;;;;13.87;77.38;99386.72;5065036;28;20064;-67
2021/11/01 17:03:10;;;;;;;1.38;0.90;;;;;;;13.71;78.61;99372.25;5062843;28;20549;-67
2021/11/01 17:05:56;;;;;;;1.27;0.88;;;;;;;13.62;78.54;99380.88;5063100;28;20051;-67
2021/11/01 17:08:50;;;;;;;0.70;0.70;;;;;;;13.57;79.06;99373.19;5062165;28;20093;-67
2021/11/01 17:22:19;;;;;;;3.42;1.13;;;;;;;13.26;81.33;99385.94;5059258;28;20033;-67
2021/11/01 17:28:07;;;;;;;1.35;1.02;;;;;;;13.12;81.90;99388.03;5055969;28;20036;-68
2021/11/01 17:30:50;;;;;;;1.13;0.63;;;;;;;13.13;82.20;99386.84;5066973;28;20051;-68
2021/11/01 17:36:17;;;;;;;0.95;0.82;;;;;;;13.13;82.79;99378.75;5064125;28;20040;-67
2021/11/01 18:37:38;;;;;;;1.38;0.68;;;;;;;12.42;86.15;99409.09;5057629;28;20071;-67
2021/11/01 18:40:15;;;;;;;1.05;0.60;;;;;;;12.42;86.21;99408.34;5062917;28;20052;-67
2021/11/01 18:43:04;;;;;;;1.25;0.80;;;;;;;12.39;86.20;99417.97;5062618;28;20036;-67
2021/11/01 18:51:06;;;;;;;1.92;1.00;;;;;;;12.36;86.13;99424.19;5069067;28;20044;-67
2021/11/01 18:54:02;;;;;;;2.60;1.10;;;;;;;12.30;85.81;99423.06;5068439;28;20068;-67
2021/11/01 18:56:34;;;;;;;0.65;0.65;;;;;;;12.37;85.93;99414.13;5069493;28;20032;-67
2021/11/01 18:59:02;;;;;;;2.15;0.93;;;;;;;12.28;86.29;99403.81;5071022;28;20123;-67
2021/11/01 19:01:32;;;;;;;2.72;1.17;;;;;;;12.25;86.64;99404.56;5068533;28;20032;-67
2021/11/01 19:03:59;;;;;;;1.17;0.60;;;;;;;12.26;86.53;99397.25;5066730;28;20037;-67
2021/11/01 19:06:44;;;;;;;1.80;0.82;;;;;;;12.27;86.48;99404.94;5068544;28;20032;-67
2021/11/01 19:18:05;;;;;;;1.23;0.68;;;;;;;12.10;87.04;99392.34;5072074;28;20790;-67
2021/11/01 21:27:38;;;;;;;1.95;1.38;;;;;;;11.38;92.37;99411.19;5040523;28;20618;-66
2021/11/01 21:30:05;;;;;;;1.42;1.00;;;;;;;11.38;92.76;99419.28;4966871;28;20050;-67
2021/11/01 21:32:31;;;;;;;1.25;0.70;;;;;;;11.43;92.62;99421.56;4986928;28;20042;-67
2021/11/01 21:35:02;;;;;;;1.08;0.75;;;;;;;11.39;92.73;99420.78;5005956;28;20451;-66
2021/11/01 21:37:28;;;;;;;2.40;0.80;;;;;;;11.41;92.73;99426.56;4999417;28;20033;-66
2021/11/01 21:39:54;;;;;;;1.27;0.90;;;;;;;11.45;92.63;99432.72;4997078;28;20594;-67
2021/11/01 21:42:20;;;;;;;1.70;0.90;;;;;;;11.38;92.77;99422.72;5006637;28;20053;-67
2021/11/01 21:44:45;;;;;;;2.42;0.93;;;;;;;11.43;92.49;99425.03;4997724;28;20029;-67
2021/11/01 21:47:11;;;;;;;3.35;0.85;;;;;;;11.40;92.35;99414.25;4998470;28;20064;-66
2021/11/01 21:49:36;;;;;;;2.22;0.85;;;;;;;11.33;93.35;99414.28;5003488;28;20045;-66
2021/11/01 21:52:03;;;;;;;1.15;0.70;;;;;;;11.41;92.62;99403.09;5004928;28;20415;-67
2021/11/01 21:54:31;;;;;;;0.73;0.57;;;;;;;11.33;93.35;99409.66;4998930;28;20052;-66
2021/11/01 21:57:20;;;;;;;0.60;0.52;;;;;;;11.31;93.74;99416.59;5007666;28;20053;-67
2021/11/01 22:18:49;;;;;;;6.97;1.10;;;;;;;11.21;93.96;99390.44;5068265;28;20402;-66
2021/11/01 22:27:07;;;;;;;0.73;0.70;;;;;;;11.25;92.91;99391.97;5068395;28;20040;-66
2021/11/01 22:40:39;;;;;;;3.08;0.80;;;;;;;11.11;94.29;99375.09;5065361;28;20032;-67
2021/11/01 22:55:32;;;;;;;1.58;1.00;;;;;;;11.11;94.88;99358.91;5062508;28;20052;-66
2021/11/01 22:56:49;;;;;;;3.47;0.63;;;;;;;11.06;94.39;99353.91;5069632;28;20040;-66
2021/11/01 22:59:17;;;;;;;1.13;0.95;;;;;;;11.10;94.53;99349.28;5061756;28;20028;-67
2021/11/01 23:01:45;;;;;;;1.48;0.75;;;;;;;11.09;94.61;99355.84;5066896;28;20548;-67
2021/11/01 23:04:26;;;;;;;0.90;0.65;;;;;;;11.09;94.36;99350.47;5080235;28;20037;-67
2021/11/01 23:31:33;;;;;;;3.60;0.90;;;;;;;10.92;95.64;99348.59;5064578;28;20036;-66
2021/11/01 23:34:01;;;;;;;0.40;0.40;;;;;;;10.95;95.46;99345.88;5062348;28;20024;-68
2021/11/01 23:36:27;;;;;;;0.55;0.55;;;;;;;10.87;96.03;99347.06;5078129;28;20025;-66
2021/11/01 23:38:53;;;;;;;1.00;0.52;;;;;;;10.88;96.00;99343.19;5081870;28;20366;-66
2021/11/01 23:41:19;;;;;;;0.60;0.60;;;;;;;10.86;96.42;99348.19;5072098;28;20177;-66
2021/11/01 23:43:47;;;;;;;1.05;0.60;;;;;;;10.92;95.77;99351.28;5061986;28;20041;-67
2021/11/01 23:46:12;;;;;;;1.02;0.55;;;;;;;10.80;96.66;99349.78;5082078;28;20043;-67
2021/11/01 23:48:38;;;;;;;1.10;0.80;;;;;;;10.85;96.57;99343.97;5072037;28;20029;-66